createdAt,value
2016-08-03T00:00:31.122Z,954.96
2016-08-03T00:01:31.083Z,955.04
2016-08-03T00:02:31.084Z,955.05
2016-08-03T00:03:31.073Z,955.03
2016-08-03T00:04:31.074Z,955.09
2016-08-03T00:05:31.087Z,955.09
2016-08-03T00:06:31.064Z,955.07
2016-08-03T00:07:31.063Z,955.03
2016-08-03T00:08:31.062Z,955.03
2016-08-03T00:09:31.050Z,955.05
2016-08-03T00:10:31.051Z,955.02
2016-08-03T00:11:31.049Z,955.07
2016-08-03T00:12:31.039Z,955.01
2016-08-03T00:13:31.037Z,955.04
2016-08-03T00:14:31.034Z,955.01
2016-08-03T00:15:31.039Z,955.02
2016-08-03T00:16:31.028Z,955.05
2016-08-03T00:17:31.015Z,955.07
2016-08-03T00:18:31.020Z,955.09
2016-08-03T00:19:31.010Z,955.07
2016-08-03T00:20:31.005Z,955.09
2016-08-03T00:21:31.002Z,955.02
2016-08-03T00:22:31.000Z,954.98
2016-08-03T00:23:31.007Z,955.05
2016-08-03T00:24:30.987Z,955.04
2016-08-03T00:25:30.982Z,955.03
2016-08-03T00:26:30.986Z,954.99
2016-08-03T00:27:30.975Z,955.01
2016-08-03T00:29:30.968Z,955
2016-08-03T00:30:30.974Z,955.02
2016-08-03T00:31:30.966Z,955.01
2016-08-03T00:32:30.959Z,955
2016-08-03T00:33:30.970Z,955
2016-08-03T00:34:30.944Z,954.98
2016-08-03T00:35:30.943Z,954.99
2016-08-03T00:36:30.945Z,954.97
2016-08-03T00:37:30.937Z,955.02
2016-08-03T00:38:30.935Z,955
2016-08-03T00:39:30.929Z,955.03
2016-08-03T00:40:30.928Z,955
2016-08-03T00:41:30.925Z,955.01
2016-08-03T00:42:30.921Z,954.99
2016-08-03T00:43:30.914Z,955.02
2016-08-03T00:44:30.905Z,954.97
2016-08-03T00:45:30.908Z,954.97
2016-08-03T00:46:30.898Z,954.97
2016-08-03T00:47:30.900Z,954.98
2016-08-03T00:48:30.897Z,954.97
2016-08-03T00:49:30.888Z,954.95
2016-08-03T00:50:30.888Z,954.94
2016-08-03T00:51:30.881Z,954.96
2016-08-03T00:52:30.884Z,954.91
2016-08-03T00:53:30.881Z,954.91
2016-08-03T00:54:30.869Z,954.89
2016-08-03T00:55:30.870Z,954.9
2016-08-03T00:56:30.863Z,954.88
2016-08-03T00:57:30.856Z,954.84
2016-08-03T00:58:30.860Z,954.88
2016-08-03T00:59:30.850Z,954.86
2016-08-03T01:00:30.863Z,954.91
2016-08-03T01:01:30.837Z,954.88
2016-08-03T01:02:30.836Z,954.87
2016-08-03T01:03:30.844Z,954.9
2016-08-03T01:04:30.833Z,954.97
2016-08-03T01:05:30.825Z,954.92
2016-08-03T01:06:30.825Z,954.91
2016-08-03T01:07:30.816Z,954.95
2016-08-03T01:08:30.849Z,954.94
2016-08-03T01:09:30.813Z,954.9
2016-08-03T01:10:30.805Z,954.88
2016-08-03T01:11:30.815Z,954.87
2016-08-03T01:12:30.797Z,954.84
2016-08-03T01:13:30.801Z,954.84
2016-08-03T01:14:30.794Z,954.78
2016-08-03T01:15:30.800Z,954.8
2016-08-03T01:16:30.780Z,954.79
2016-08-03T01:17:30.796Z,954.75
2016-08-03T01:18:30.780Z,954.77
2016-08-03T01:19:30.776Z,954.73
2016-08-03T01:20:30.777Z,954.75
2016-08-03T01:21:30.762Z,954.78
2016-08-03T01:22:30.755Z,954.76
2016-08-03T01:23:30.762Z,954.78
2016-08-03T01:24:30.754Z,954.81
2016-08-03T01:25:30.763Z,954.83
2016-08-03T01:26:30.749Z,954.8
2016-08-03T01:27:30.734Z,954.79
2016-08-03T01:28:30.740Z,954.8
2016-08-03T01:29:30.743Z,954.8
2016-08-03T01:30:30.730Z,954.79
2016-08-03T01:31:30.723Z,954.75
2016-08-03T01:32:30.721Z,954.79
2016-08-03T01:33:30.717Z,954.77
2016-08-03T01:34:30.715Z,954.74
2016-08-03T01:35:30.722Z,954.75
2016-08-03T01:36:30.706Z,954.67
2016-08-03T01:37:30.700Z,954.66
2016-08-03T01:38:30.704Z,954.66
2016-08-03T01:39:30.704Z,954.64
2016-08-03T01:40:30.707Z,954.66
2016-08-03T01:41:30.724Z,954.7
2016-08-03T01:42:30.692Z,954.68
2016-08-03T01:43:30.680Z,954.68
2016-08-03T01:44:30.682Z,954.69
2016-08-03T01:45:30.678Z,954.72
2016-08-03T01:46:30.666Z,954.73
2016-08-03T01:47:30.658Z,954.7
2016-08-03T01:48:30.662Z,954.69
2016-08-03T01:49:30.658Z,954.72
2016-08-03T01:50:30.660Z,954.71
2016-08-03T01:51:30.645Z,954.7
2016-08-03T01:52:30.646Z,954.65
2016-08-03T01:53:30.647Z,954.69
2016-08-03T01:54:30.633Z,954.64
2016-08-03T01:55:30.625Z,954.66
2016-08-03T01:56:30.622Z,954.66
2016-08-03T01:57:30.626Z,954.64
2016-08-03T01:58:30.616Z,954.65
2016-08-03T01:59:30.616Z,954.62
2016-08-03T02:00:30.619Z,954.63
2016-08-03T02:01:30.610Z,954.62
2016-08-03T02:02:30.774Z,954.64
2016-08-03T02:03:30.604Z,954.66
2016-08-03T02:04:30.595Z,954.64
2016-08-03T02:05:30.603Z,954.62
2016-08-03T02:06:30.589Z,954.68
2016-08-03T02:07:30.581Z,954.62
2016-08-03T02:08:30.590Z,954.63
2016-08-03T02:09:30.576Z,954.63
2016-08-03T02:10:30.572Z,954.58
2016-08-03T02:11:30.718Z,954.57
2016-08-03T02:12:30.561Z,954.59
2016-08-03T02:13:30.569Z,954.54
2016-08-03T02:14:30.564Z,954.55
2016-08-03T02:15:30.557Z,954.57
2016-08-03T02:16:30.547Z,954.57
2016-08-03T02:17:30.543Z,954.54
2016-08-03T02:18:30.540Z,954.58
2016-08-03T02:19:30.543Z,954.51
2016-08-03T02:20:30.535Z,954.49
2016-08-03T02:21:30.549Z,954.54
2016-08-03T02:22:30.518Z,954.55
2016-08-03T02:23:30.548Z,954.56
2016-08-03T02:24:30.516Z,954.51
2016-08-03T02:25:30.520Z,954.5
2016-08-03T02:26:30.504Z,954.52
2016-08-03T02:27:30.505Z,954.48
2016-08-03T02:28:30.498Z,954.49
2016-08-03T02:29:30.566Z,954.45
2016-08-03T02:30:30.497Z,954.46
2016-08-03T02:31:30.489Z,954.43
2016-08-03T02:32:30.482Z,954.4
2016-08-03T02:33:30.483Z,954.44
2016-08-03T02:34:30.479Z,954.42
2016-08-03T02:35:30.478Z,954.41
2016-08-03T02:36:30.465Z,954.42
2016-08-03T02:37:30.464Z,954.35
2016-08-03T02:38:30.467Z,954.36
2016-08-03T02:39:30.458Z,954.37
2016-08-03T02:40:30.451Z,954.36
2016-08-03T02:41:30.453Z,954.33
2016-08-03T02:42:30.443Z,954.35
2016-08-03T02:43:30.441Z,954.33
2016-08-03T02:44:30.441Z,954.38
2016-08-03T02:45:30.433Z,954.34
2016-08-03T02:46:30.427Z,954.34
2016-08-03T02:47:30.439Z,954.33
2016-08-03T02:48:30.447Z,954.32
2016-08-03T02:49:30.413Z,954.33
2016-08-03T02:50:30.413Z,954.36
2016-08-03T02:51:30.418Z,954.34
2016-08-03T02:52:30.403Z,954.3
2016-08-03T02:53:30.401Z,954.31
2016-08-03T02:54:30.395Z,954.32
2016-08-03T02:55:30.393Z,954.29
2016-08-03T02:56:30.389Z,954.28
2016-08-03T02:57:30.383Z,954.25
2016-08-03T02:58:30.381Z,954.27
2016-08-03T02:59:30.373Z,954.24
2016-08-03T03:00:30.380Z,954.26
2016-08-03T03:01:30.365Z,954.27
2016-08-03T03:02:30.368Z,954.24
2016-08-03T03:03:30.360Z,954.21
2016-08-03T03:04:30.366Z,954.24
2016-08-03T03:05:30.355Z,954.23
2016-08-03T03:06:30.354Z,954.24
2016-08-03T03:07:30.344Z,954.25
2016-08-03T03:08:30.343Z,954.22
2016-08-03T03:09:30.331Z,954.22
2016-08-03T03:10:30.331Z,954.21
2016-08-03T03:11:30.328Z,954.21
2016-08-03T03:12:30.319Z,954.19
2016-08-03T03:13:30.319Z,954.23
2016-08-03T03:14:30.316Z,954.18
2016-08-03T03:15:30.319Z,954.23
2016-08-03T03:16:30.353Z,954.2
2016-08-03T03:17:30.307Z,954.19
2016-08-03T03:18:30.317Z,954.16
2016-08-03T03:19:30.294Z,954.15
2016-08-03T03:20:30.288Z,954.15
2016-08-03T03:21:30.283Z,954.17
2016-08-03T03:22:30.287Z,954.17
2016-08-03T03:23:30.277Z,954.18
2016-08-03T03:24:30.281Z,954.12
2016-08-03T03:25:30.267Z,954.13
2016-08-03T03:26:30.269Z,954.16
2016-08-03T03:27:30.264Z,954.11
2016-08-03T03:28:30.263Z,954.14
2016-08-03T03:29:30.252Z,954.17
2016-08-03T03:30:30.248Z,954.17
2016-08-03T03:31:30.239Z,954.16
2016-08-03T03:32:30.245Z,954.15
2016-08-03T03:33:30.244Z,954.12
2016-08-03T03:34:30.238Z,954.08
2016-08-03T03:35:30.227Z,954.12
2016-08-03T03:36:30.227Z,954.1
2016-08-03T03:37:30.224Z,954.09
2016-08-03T03:38:30.218Z,954.09
2016-08-03T03:39:30.212Z,954.13
2016-08-03T03:40:30.259Z,954.13
2016-08-03T03:41:30.212Z,954.16
2016-08-03T03:42:30.207Z,954.17
2016-08-03T03:43:30.191Z,954.13
2016-08-03T03:45:30.186Z,954.1
2016-08-03T03:46:30.224Z,954.09
2016-08-03T03:47:30.175Z,954.09
2016-08-03T03:48:30.180Z,954.1
2016-08-03T03:49:30.167Z,954.08
2016-08-03T03:50:30.178Z,954.02
2016-08-03T03:51:30.169Z,954.08
2016-08-03T03:52:30.158Z,954.11
2016-08-03T03:53:30.158Z,954.11
2016-08-03T03:54:30.152Z,954.04
2016-08-03T03:55:30.144Z,954.06
2016-08-03T03:56:30.146Z,954.01
2016-08-03T03:57:30.135Z,954.01
2016-08-03T03:58:30.135Z,953.96
2016-08-03T04:00:30.126Z,953.98
2016-08-03T04:01:30.126Z,953.92
2016-08-03T04:02:30.120Z,953.95
2016-08-03T04:03:30.124Z,953.97
2016-08-03T04:04:30.116Z,953.98
2016-08-03T04:05:30.105Z,953.98
2016-08-03T04:06:30.107Z,953.92
2016-08-03T04:07:30.095Z,953.94
2016-08-03T04:08:30.096Z,953.97
2016-08-03T04:09:30.101Z,953.96
2016-08-03T04:10:30.086Z,953.95
2016-08-03T04:11:30.085Z,953.99
2016-08-03T04:12:30.079Z,953.93
2016-08-03T04:13:30.073Z,953.99
2016-08-03T04:15:30.060Z,953.93
2016-08-03T04:16:30.067Z,953.93
2016-08-03T04:17:30.060Z,953.98
2016-08-03T04:18:30.059Z,953.95
2016-08-03T04:19:30.068Z,953.95
2016-08-03T04:20:30.044Z,954
2016-08-03T04:21:30.051Z,954.02
2016-08-03T04:22:30.040Z,953.96
2016-08-03T04:23:30.037Z,953.96
2016-08-03T04:24:30.036Z,953.93
2016-08-03T04:25:30.021Z,953.91
2016-08-03T04:26:30.029Z,953.94
2016-08-03T04:27:30.040Z,953.96
2016-08-03T04:28:30.012Z,953.95
2016-08-03T04:30:30.008Z,953.89
2016-08-03T04:31:30.006Z,953.91
2016-08-03T04:32:29.998Z,953.91
2016-08-03T04:33:30.009Z,953.93
2016-08-03T04:34:29.991Z,953.9
2016-08-03T04:35:29.991Z,953.87
2016-08-03T04:36:29.986Z,953.86
2016-08-03T04:37:29.977Z,953.82
2016-08-03T04:38:29.975Z,953.83
2016-08-03T04:39:29.976Z,953.82
2016-08-03T04:40:29.969Z,953.8
2016-08-03T04:41:29.970Z,953.8
2016-08-03T04:42:29.961Z,953.8
2016-08-03T04:43:29.957Z,953.8
2016-08-03T04:44:29.956Z,953.81
2016-08-03T04:45:29.952Z,953.77
2016-08-03T04:46:29.945Z,953.71
2016-08-03T04:47:29.951Z,953.74
2016-08-03T04:48:29.935Z,953.77
2016-08-03T04:49:29.942Z,953.74
2016-08-03T04:50:29.937Z,953.71
2016-08-03T04:51:29.935Z,953.73
2016-08-03T04:52:29.921Z,953.74
2016-08-03T04:53:29.921Z,953.76
2016-08-03T04:54:29.915Z,953.79
2016-08-03T04:55:29.913Z,953.82
2016-08-03T04:56:29.912Z,953.83
2016-08-03T04:57:29.905Z,953.79
2016-08-03T04:58:29.897Z,953.85
2016-08-03T04:59:29.902Z,953.83
2016-08-03T05:00:29.896Z,953.85
2016-08-03T05:01:29.894Z,953.79
2016-08-03T05:02:29.889Z,953.83
2016-08-03T05:03:29.928Z,953.77
2016-08-03T05:04:29.884Z,953.85
2016-08-03T05:05:29.876Z,953.82
2016-08-03T05:06:29.878Z,953.84
2016-08-03T05:07:29.878Z,953.8
2016-08-03T05:08:29.864Z,953.81
2016-08-03T05:09:29.863Z,953.83
2016-08-03T05:10:29.857Z,953.85
2016-08-03T05:11:29.859Z,953.8
2016-08-03T05:12:29.847Z,953.84
2016-08-03T05:13:29.848Z,953.86
2016-08-03T05:14:29.845Z,953.87
2016-08-03T05:15:29.837Z,953.9
2016-08-03T05:16:29.834Z,953.93
2016-08-03T05:17:29.839Z,953.94
2016-08-03T05:18:29.831Z,953.95
2016-08-03T05:19:29.840Z,953.9
2016-08-03T05:20:29.846Z,953.93
2016-08-03T05:21:29.821Z,953.95
2016-08-03T05:22:29.814Z,953.9
2016-08-03T05:23:29.810Z,953.93
2016-08-03T05:24:29.809Z,953.89
2016-08-03T05:25:29.807Z,953.87
2016-08-03T05:26:29.800Z,953.87
2016-08-03T05:27:29.804Z,953.83
2016-08-03T05:28:29.796Z,953.81
2016-08-03T05:29:29.795Z,953.79
2016-08-03T05:30:29.789Z,953.78
2016-08-03T05:31:29.799Z,953.71
2016-08-03T05:32:29.785Z,953.78
2016-08-03T05:33:29.778Z,953.72
2016-08-03T05:34:29.775Z,953.72
2016-08-03T05:35:29.773Z,953.74
2016-08-03T05:36:29.780Z,953.66
2016-08-03T05:37:29.773Z,953.69
2016-08-03T05:38:29.781Z,953.73
2016-08-03T05:39:29.768Z,953.69
2016-08-03T05:40:29.760Z,953.73
2016-08-03T05:41:29.758Z,953.71
2016-08-03T05:42:29.761Z,953.69
2016-08-03T05:43:29.752Z,953.69
2016-08-03T05:44:29.746Z,953.69
2016-08-03T05:45:29.741Z,953.63
2016-08-03T05:46:29.746Z,953.58
2016-08-03T05:47:29.737Z,953.59
2016-08-03T05:48:29.739Z,953.56
2016-08-03T05:49:29.738Z,953.54
2016-08-03T05:50:29.726Z,953.53
2016-08-03T05:51:29.727Z,953.49
2016-08-03T05:52:29.727Z,953.51
2016-08-03T05:53:29.723Z,953.49
2016-08-03T05:54:29.716Z,953.48
2016-08-03T05:55:29.716Z,953.5
2016-08-03T05:56:29.718Z,953.47
2016-08-03T05:57:29.712Z,953.52
2016-08-03T05:58:29.703Z,953.49
2016-08-03T05:59:29.702Z,953.49
2016-08-03T06:00:29.709Z,953.47
2016-08-03T06:01:29.706Z,953.48
2016-08-03T06:02:29.695Z,953.47
2016-08-03T06:03:29.712Z,953.49
2016-08-03T06:04:29.688Z,953.48
2016-08-03T06:05:29.683Z,953.49
2016-08-03T06:06:29.684Z,953.49
2016-08-03T06:07:29.674Z,953.5
2016-08-03T06:08:29.673Z,953.5
2016-08-03T06:09:29.680Z,953.47
2016-08-03T06:10:29.671Z,953.48
2016-08-03T06:11:29.672Z,953.49
2016-08-03T06:12:29.668Z,953.46
2016-08-03T06:13:29.659Z,953.46
2016-08-03T06:14:29.664Z,953.49
2016-08-03T06:15:29.657Z,953.52
2016-08-03T06:16:29.657Z,953.5
2016-08-03T06:17:29.654Z,953.51
2016-08-03T06:18:29.649Z,953.44
2016-08-03T06:19:29.653Z,953.46
2016-08-03T06:20:29.648Z,953.42
2016-08-03T06:21:29.645Z,953.43
2016-08-03T06:22:29.640Z,953.47
2016-08-03T06:23:29.634Z,953.38
2016-08-03T06:24:29.636Z,953.45
2016-08-03T06:25:29.649Z,953.4
2016-08-03T06:26:29.626Z,953.37
2016-08-03T06:27:29.631Z,953.35
2016-08-03T06:28:29.625Z,953.36
2016-08-03T06:29:29.623Z,953.36
2016-08-03T06:30:29.618Z,953.42
2016-08-03T06:31:29.618Z,953.31
2016-08-03T06:32:29.617Z,953.32
2016-08-03T06:33:29.615Z,953.37
2016-08-03T06:34:29.614Z,953.32
2016-08-03T06:35:29.615Z,953.41
2016-08-03T06:36:29.604Z,953.33
2016-08-03T06:37:29.604Z,953.39
2016-08-03T06:38:29.596Z,953.38
2016-08-03T06:39:29.603Z,953.41
2016-08-03T06:40:29.594Z,953.41
2016-08-03T06:41:29.598Z,953.38
2016-08-03T06:42:29.594Z,953.37
2016-08-03T06:43:29.592Z,953.36
2016-08-03T06:44:29.600Z,953.42
2016-08-03T06:45:29.602Z,953.41
2016-08-03T06:46:29.591Z,953.41
2016-08-03T06:47:29.593Z,953.39
2016-08-03T06:48:29.581Z,953.37
2016-08-03T06:49:29.579Z,953.4
2016-08-03T06:50:29.578Z,953.35
2016-08-03T06:51:29.578Z,953.36
2016-08-03T06:52:29.575Z,953.4
2016-08-03T06:53:29.570Z,953.35
2016-08-03T06:54:29.577Z,953.35
2016-08-03T06:55:29.574Z,953.33
2016-08-03T06:56:29.572Z,953.33
2016-08-03T06:57:29.573Z,953.37
2016-08-03T06:58:29.565Z,953.28
2016-08-03T06:59:29.560Z,953.33
2016-08-03T07:00:29.557Z,953.36
2016-08-03T07:01:29.563Z,953.35
2016-08-03T07:02:29.563Z,953.29
2016-08-03T07:03:29.560Z,953.32
2016-08-03T07:04:29.562Z,953.38
2016-08-03T07:05:29.557Z,953.36
2016-08-03T07:06:29.563Z,953.4
2016-08-03T07:07:29.552Z,953.48
2016-08-03T07:08:29.554Z,953.42
2016-08-03T07:09:29.556Z,953.36
2016-08-03T07:10:29.551Z,953.4
2016-08-03T07:11:29.553Z,953.38
2016-08-03T07:12:29.547Z,953.35
2016-08-03T07:13:29.544Z,953.34
2016-08-03T07:14:29.545Z,953.33
2016-08-03T07:15:29.552Z,953.35
2016-08-03T07:16:29.717Z,953.38
2016-08-03T07:17:29.749Z,953.38
2016-08-03T07:18:29.538Z,953.42
2016-08-03T07:19:29.542Z,953.44
2016-08-03T07:20:29.537Z,953.42
2016-08-03T07:21:29.535Z,953.43
2016-08-03T07:22:29.536Z,953.41
2016-08-03T07:23:29.583Z,953.47
2016-08-03T07:24:29.526Z,953.47
2016-08-03T07:25:29.525Z,953.44
2016-08-03T07:26:29.532Z,953.49
2016-08-03T07:27:29.526Z,953.45
2016-08-03T07:28:29.528Z,953.51
2016-08-03T07:29:29.531Z,953.53
2016-08-03T07:31:29.521Z,953.44
2016-08-03T07:32:29.514Z,953.48
2016-08-03T07:33:29.516Z,953.45
2016-08-03T07:34:29.516Z,953.45
2016-08-03T07:35:29.521Z,953.51
2016-08-03T07:36:29.515Z,953.47
2016-08-03T07:37:29.517Z,953.47
2016-08-03T07:38:29.672Z,953.53
2016-08-03T07:39:29.581Z,953.43
2016-08-03T07:40:29.611Z,953.43
2016-08-03T07:41:29.512Z,953.41
2016-08-03T07:42:29.511Z,953.43
2016-08-03T07:43:29.498Z,953.36
2016-08-03T07:44:29.509Z,953.38
2016-08-03T07:46:29.501Z,953.38
2016-08-03T07:47:29.493Z,953.43
2016-08-03T07:48:29.498Z,953.39
2016-08-03T07:49:29.498Z,953.4
2016-08-03T07:50:29.555Z,953.37
2016-08-03T07:51:29.492Z,953.42
2016-08-03T07:52:29.491Z,953.46
2016-08-03T07:53:29.514Z,953.48
2016-08-03T07:54:29.487Z,953.46
2016-08-03T07:55:29.482Z,953.45
2016-08-03T07:56:29.597Z,953.44
2016-08-03T07:57:29.478Z,953.42
2016-08-03T07:58:29.479Z,953.42
2016-08-03T07:59:29.615Z,953.41
2016-08-03T08:01:29.471Z,953.4
2016-08-03T08:02:29.467Z,953.38
2016-08-03T08:03:29.466Z,953.35
2016-08-03T08:04:29.466Z,953.37
2016-08-03T08:05:29.465Z,953.41
2016-08-03T08:06:29.468Z,953.4
2016-08-03T08:07:29.459Z,953.41
2016-08-03T08:08:29.459Z,953.37
2016-08-03T08:09:29.461Z,953.38
2016-08-03T08:10:29.457Z,953.35
2016-08-03T08:11:29.465Z,953.39
2016-08-03T08:12:29.455Z,953.35
2016-08-03T08:13:29.454Z,953.39
2016-08-03T08:14:29.450Z,953.39
2016-08-03T08:15:29.451Z,953.35
2016-08-03T08:16:29.465Z,953.37
2016-08-03T08:17:29.441Z,953.38
2016-08-03T08:18:29.455Z,953.35
2016-08-03T08:19:29.442Z,953.41
2016-08-03T08:20:29.438Z,953.35
2016-08-03T08:21:29.438Z,953.4
2016-08-03T08:22:29.435Z,953.41
2016-08-03T08:23:29.434Z,953.42
2016-08-03T08:24:29.433Z,953.39
2016-08-03T08:25:29.429Z,953.39
2016-08-03T08:26:29.438Z,953.45
2016-08-03T08:27:29.438Z,953.38
2016-08-03T08:28:29.435Z,953.37
2016-08-03T08:29:29.427Z,953.35
2016-08-03T08:30:29.421Z,953.36
2016-08-03T08:31:29.420Z,953.35
2016-08-03T08:32:29.427Z,953.32
2016-08-03T08:33:29.416Z,953.37
2016-08-03T08:34:29.417Z,953.33
2016-08-03T08:35:29.420Z,953.36
2016-08-03T08:36:29.412Z,953.38
2016-08-03T08:37:29.413Z,953.35
2016-08-03T08:38:29.417Z,953.36
2016-08-03T08:39:29.414Z,953.29
2016-08-03T08:40:29.415Z,953.4
2016-08-03T08:41:29.403Z,953.32
2016-08-03T08:42:29.405Z,953.38
2016-08-03T08:43:29.399Z,953.3
2016-08-03T08:44:29.397Z,953.37
2016-08-03T08:45:29.400Z,953.31
2016-08-03T08:46:29.397Z,953.34
2016-08-03T08:47:29.393Z,953.34
2016-08-03T08:48:29.393Z,953.32
2016-08-03T08:49:29.391Z,953.36
2016-08-03T08:50:29.393Z,953.4
2016-08-03T08:51:29.387Z,953.41
2016-08-03T08:52:29.389Z,953.36
2016-08-03T08:53:29.382Z,953.38
2016-08-03T08:54:29.386Z,953.37
2016-08-03T08:55:29.383Z,953.37
2016-08-03T08:56:29.377Z,953.36
2016-08-03T08:57:29.376Z,953.41
2016-08-03T08:58:29.371Z,953.36
2016-08-03T08:59:29.379Z,953.35
2016-08-03T09:00:29.376Z,953.4
2016-08-03T09:01:29.371Z,953.39
2016-08-03T09:02:29.368Z,953.4
2016-08-03T09:03:29.367Z,953.45
2016-08-03T09:04:29.369Z,953.39
2016-08-03T09:05:29.368Z,953.36
2016-08-03T09:06:29.369Z,953.31
2016-08-03T09:07:29.359Z,953.31
2016-08-03T09:08:29.358Z,953.24
2016-08-03T09:09:29.359Z,953.29
2016-08-03T09:10:29.356Z,953.32
2016-08-03T09:11:29.356Z,953.33
2016-08-03T09:12:29.358Z,953.35
2016-08-03T09:13:29.360Z,953.3
2016-08-03T09:14:29.344Z,953.27
2016-08-03T09:15:29.344Z,953.27
2016-08-03T09:16:29.350Z,953.25
2016-08-03T09:17:29.363Z,953.36
2016-08-03T09:18:29.342Z,953.23
2016-08-03T09:19:29.339Z,953.16
2016-08-03T09:20:29.340Z,953.19
2016-08-03T09:21:29.341Z,953.21
2016-08-03T09:22:29.333Z,953.27
2016-08-03T09:23:29.337Z,953.26
2016-08-03T09:24:29.338Z,953.24
2016-08-03T09:25:29.355Z,953.29
2016-08-03T09:26:29.340Z,953.29
2016-08-03T09:27:29.328Z,953.27
2016-08-03T09:28:29.335Z,953.21
2016-08-03T09:29:29.334Z,953.17
2016-08-03T09:30:29.332Z,953.26
2016-08-03T09:31:29.326Z,953.2
2016-08-03T09:32:29.327Z,953.24
2016-08-03T09:33:29.323Z,953.2
2016-08-03T09:34:29.323Z,953.25
2016-08-03T09:35:29.324Z,953.19
2016-08-03T09:36:29.323Z,953.17
2016-08-03T09:37:29.329Z,953.2
2016-08-03T09:38:29.334Z,953.18
2016-08-03T09:39:29.316Z,953.18
2016-08-03T09:40:29.315Z,953.24
2016-08-03T09:41:29.317Z,953.25
2016-08-03T09:42:29.318Z,953.26
2016-08-03T09:43:29.317Z,953.25
2016-08-03T09:44:29.314Z,953.15
2016-08-03T09:45:29.320Z,953.31
2016-08-03T09:46:29.313Z,953.27
2016-08-03T09:47:29.312Z,953.25
2016-08-03T09:48:29.312Z,953.24
2016-08-03T09:49:29.313Z,953.24
2016-08-03T09:50:29.312Z,953.2
2016-08-03T09:51:29.307Z,953.23
2016-08-03T09:52:29.315Z,953.17
2016-08-03T09:53:29.316Z,953.19
2016-08-03T09:54:29.311Z,953.23
2016-08-03T09:55:29.307Z,953.25
2016-08-03T09:56:29.308Z,953.22
2016-08-03T09:57:29.306Z,953.29
2016-08-03T09:58:29.304Z,953.28
2016-08-03T09:59:29.300Z,953.32
2016-08-03T10:00:29.297Z,953.28
2016-08-03T10:01:29.302Z,953.32
2016-08-03T10:02:29.296Z,953.3
2016-08-03T10:03:29.293Z,953.28
2016-08-03T10:04:29.293Z,953.3
2016-08-03T10:05:29.295Z,953.3
2016-08-03T10:06:29.292Z,953.25
2016-08-03T10:07:29.298Z,953.31
2016-08-03T10:08:29.289Z,953.23
2016-08-03T10:09:29.298Z,953.28
2016-08-03T10:10:29.288Z,953.24
2016-08-03T10:11:29.285Z,953.26
2016-08-03T10:12:29.291Z,953.22
2016-08-03T10:13:29.297Z,953.28
2016-08-03T10:14:29.281Z,953.24
2016-08-03T10:15:29.281Z,953.24
2016-08-03T10:16:29.289Z,953.19
2016-08-03T10:17:29.287Z,953.21
2016-08-03T10:18:29.278Z,953.19
2016-08-03T10:19:29.280Z,953.11
2016-08-03T10:20:29.271Z,953.21
2016-08-03T10:21:29.284Z,953.19
2016-08-03T10:22:29.284Z,953.2
2016-08-03T10:23:29.268Z,953.18
2016-08-03T10:24:29.275Z,953.16
2016-08-03T10:25:29.280Z,953.14
2016-08-03T10:26:29.275Z,953.19
2016-08-03T10:27:29.269Z,953.19
2016-08-03T10:28:29.263Z,953.15
2016-08-03T10:29:29.264Z,953.17
2016-08-03T10:30:29.272Z,953.21
2016-08-03T10:31:29.257Z,953.16
2016-08-03T10:32:29.257Z,953.21
2016-08-03T10:33:29.268Z,953.17
2016-08-03T10:34:29.258Z,953.13
2016-08-03T10:35:29.258Z,953.16
2016-08-03T10:36:29.259Z,953.18
2016-08-03T10:37:29.270Z,953.15
2016-08-03T10:38:29.250Z,953.09
2016-08-03T10:39:29.261Z,953.11
2016-08-03T10:40:29.247Z,953.1
2016-08-03T10:41:29.246Z,953.08
2016-08-03T10:42:29.252Z,953.04
2016-08-03T10:43:29.248Z,953.08
2016-08-03T10:44:29.244Z,953.05
2016-08-03T10:45:29.247Z,953.01
2016-08-03T10:46:29.241Z,953.03
2016-08-03T10:47:29.246Z,953.03
2016-08-03T10:48:29.250Z,952.97
2016-08-03T10:49:29.246Z,953.03
2016-08-03T10:50:29.249Z,953
2016-08-03T10:51:29.238Z,952.99
2016-08-03T10:52:29.246Z,953.01
2016-08-03T10:53:29.244Z,953.02
2016-08-03T10:54:29.234Z,952.94
2016-08-03T10:55:29.244Z,952.97
2016-08-03T10:56:29.235Z,952.95
2016-08-03T10:57:29.241Z,952.91
2016-08-03T10:58:29.248Z,952.9
2016-08-03T10:59:29.242Z,952.9
2016-08-03T11:00:29.240Z,952.89
2016-08-03T11:01:29.235Z,952.86
2016-08-03T11:02:29.249Z,952.88
2016-08-03T11:03:29.244Z,952.89
2016-08-03T11:04:29.248Z,952.9
2016-08-03T11:05:29.289Z,952.94
2016-08-03T11:06:29.235Z,952.94
2016-08-03T11:07:29.236Z,952.92
2016-08-03T11:08:29.245Z,952.91
2016-08-03T11:09:29.236Z,952.95
2016-08-03T11:10:29.234Z,952.89
2016-08-03T11:11:29.237Z,952.9
2016-08-03T11:12:29.238Z,952.9
2016-08-03T11:13:29.234Z,952.93
2016-08-03T11:14:29.233Z,952.9
2016-08-03T11:15:29.237Z,952.82
2016-08-03T11:16:29.237Z,952.82
2016-08-03T11:17:29.249Z,952.83
2016-08-03T11:18:29.247Z,952.96
2016-08-03T11:19:29.235Z,952.9
2016-08-03T11:20:29.242Z,952.89
2016-08-03T11:21:29.240Z,952.93
2016-08-03T11:22:29.234Z,952.94
2016-08-03T11:23:29.251Z,952.91
2016-08-03T11:24:29.243Z,952.87
2016-08-03T11:25:29.255Z,952.86
2016-08-03T11:26:29.250Z,952.9
2016-08-03T11:27:29.252Z,952.93
2016-08-03T11:28:29.250Z,952.92
2016-08-03T11:29:29.253Z,952.93
2016-08-03T11:30:29.254Z,952.92
2016-08-03T11:32:29.258Z,952.93
2016-08-03T11:33:29.247Z,952.96
2016-08-03T11:34:29.251Z,952.99
2016-08-03T11:35:29.252Z,952.97
2016-08-03T11:36:29.251Z,953.02
2016-08-03T11:37:29.257Z,952.99
2016-08-03T11:38:29.254Z,952.99
2016-08-03T11:39:29.253Z,953.05
2016-08-03T11:40:29.253Z,953.03
2016-08-03T11:41:29.256Z,953.06
2016-08-03T11:42:29.255Z,953.1
2016-08-03T11:43:29.256Z,953.11
2016-08-03T11:44:29.254Z,953.14
2016-08-03T11:45:29.253Z,953.18
2016-08-03T11:47:29.254Z,953.13
2016-08-03T11:48:29.263Z,953.08
2016-08-03T11:49:29.271Z,953.04
2016-08-03T11:50:29.257Z,953.03
2016-08-03T11:51:29.269Z,953.11
2016-08-03T11:52:29.267Z,953.14
2016-08-03T11:53:29.257Z,953.06
2016-08-03T11:54:29.254Z,953.1
2016-08-03T11:55:29.261Z,953.05
2016-08-03T11:56:29.255Z,953.09
2016-08-03T11:57:29.262Z,953.07
2016-08-03T11:58:29.263Z,953.07
2016-08-03T11:59:29.263Z,953.01
2016-08-03T12:00:29.256Z,953.07
2016-08-03T12:01:29.258Z,952.97
2016-08-03T12:02:29.291Z,953.04
2016-08-03T12:03:29.265Z,953.06
2016-08-03T12:04:29.256Z,953.02
2016-08-03T12:05:29.255Z,953.06
2016-08-03T12:06:29.263Z,953.01
2016-08-03T12:07:29.260Z,953.04
2016-08-03T12:08:29.261Z,953.01
2016-08-03T12:09:29.257Z,953.02
2016-08-03T12:10:29.252Z,953.01
2016-08-03T12:11:29.257Z,953
2016-08-03T12:12:29.256Z,952.98
2016-08-03T12:13:29.252Z,953.02
2016-08-03T12:14:29.252Z,952.98
2016-08-03T12:15:29.266Z,952.98
2016-08-03T12:16:29.263Z,952.99
2016-08-03T12:17:29.267Z,953.03
2016-08-03T12:18:29.262Z,953.03
2016-08-03T12:19:29.269Z,953.01
2016-08-03T12:20:29.257Z,953
2016-08-03T12:21:29.258Z,953.02
2016-08-03T12:22:29.263Z,953.06
2016-08-03T12:23:29.252Z,953.07
2016-08-03T12:24:29.281Z,953.06
2016-08-03T12:25:29.256Z,953.04
2016-08-03T12:26:29.253Z,953.1
2016-08-03T12:27:29.258Z,953.04
2016-08-03T12:28:29.261Z,953.1
2016-08-03T12:29:29.252Z,953.1
2016-08-03T12:30:29.253Z,953.07
2016-08-03T12:32:29.252Z,953.09
2016-08-03T12:33:29.252Z,953.1
2016-08-03T12:34:29.322Z,953.11
2016-08-03T12:35:29.248Z,953.08
2016-08-03T12:36:29.244Z,953.08
2016-08-03T12:37:29.249Z,953.05
2016-08-03T12:38:29.257Z,953.08
2016-08-03T12:39:29.247Z,953.07
2016-08-03T12:40:29.252Z,953.09
2016-08-03T12:41:29.256Z,953.12
2016-08-03T12:42:29.260Z,953.08